sensor_id;sensor_type;location;lat;lon;timestamp;pressure;altitude;pressure_sealevel;temperature;humidity
3968;BME280;9221;42.646;23.380;2023-06-14T00:02:09;94237.50;;;18.50;98.32
3968;BME280;9221;42.646;23.380;2023-06-14T00:04:34;94256.97;;;18.71;98.09
3968;BME280;9221;42.646;23.380;2023-06-14T00:07:00;94273.84;;;18.65;98.03
3968;BME280;9221;42.646;23.380;2023-06-14T00:09:26;94268.28;;;18.66;97.86
3968;BME280;9221;42.646;23.380;2023-06-14T00:11:52;94220.03;;;18.54;97.89
3968;BME280;9221;42.646;23.380;2023-06-14T00:14:18;94255.72;;;18.80;97.68
3968;BME280;9221;42.646;23.380;2023-06-14T00:16:43;94248.72;;;18.79;97.71
3968;BME280;9221;42.646;23.380;2023-06-14T00:19:09;94260.66;;;18.83;97.21
3968;BME280;9221;42.646;23.380;2023-06-14T00:21:36;94271.34;;;18.83;96.89
3968;BME280;9221;42.646;23.380;2023-06-14T00:24:02;94237.06;;;18.67;97.04
3968;BME280;9221;42.646;23.380;2023-06-14T00:26:27;94219.25;;;18.20;98.03
3968;BME280;9221;42.646;23.380;2023-06-14T00:28:54;94242.41;;;18.67;98.46
3968;BME280;9221;42.646;23.380;2023-06-14T00:31:19;94277.13;;;18.53;98.95
3968;BME280;9221;42.646;23.380;2023-06-14T00:33:45;94243.03;;;18.62;98.75
3968;BME280;9221;42.646;23.380;2023-06-14T00:36:10;94263.97;;;18.58;98.55
3968;BME280;9221;42.646;23.380;2023-06-14T00:38:36;94249.81;;;18.71;98.13
3968;BME280;9221;42.646;23.380;2023-06-14T00:41:01;94234.38;;;18.60;97.90
3968;BME280;9221;42.646;23.380;2023-06-14T00:43:27;94272.22;;;18.30;97.91
3968;BME280;9221;42.646;23.380;2023-06-14T00:45:52;94240.97;;;18.64;97.81
3968;BME280;9221;42.646;23.380;2023-06-14T00:48:18;94236.84;;;18.61;97.67
3968;BME280;9221;42.646;23.380;2023-06-14T00:50:45;94237.69;;;18.69;97.42
3968;BME280;9221;42.646;23.380;2023-06-14T00:53:12;94236.81;;;18.75;97.48
3968;BME280;9221;42.646;23.380;2023-06-14T00:55:37;94239.94;;;18.58;98.41
3968;BME280;9221;42.646;23.380;2023-06-14T00:58:03;94239.34;;;18.56;98.66
3968;BME280;9221;42.646;23.380;2023-06-14T01:00:28;94206.13;;;18.25;98.72
3968;BME280;9221;42.646;23.380;2023-06-14T01:02:54;94188.44;;;18.24;99.41
3968;BME280;9221;42.646;23.380;2023-06-14T01:05:20;94217.00;;;18.24;98.58
3968;BME280;9221;42.646;23.380;2023-06-14T01:08:10;94230.78;;;18.27;99.37
3968;BME280;9221;42.646;23.380;2023-06-14T01:10:55;94220.09;;;18.14;99.56
3968;BME280;9221;42.646;23.380;2023-06-14T01:13:36;94233.81;;;18.24;99.57
3968;BME280;9221;42.646;23.380;2023-06-14T01:16:05;94238.13;;;18.32;99.64
3968;BME280;9221;42.646;23.380;2023-06-14T01:18:30;94183.13;;;18.11;99.30
3968;BME280;9221;42.646;23.380;2023-06-14T01:20:57;94193.78;;;18.18;99.34
3968;BME280;9221;42.646;23.380;2023-06-14T01:23:23;94191.38;;;17.96;99.14
3968;BME280;9221;42.646;23.380;2023-06-14T01:25:49;94173.28;;;17.65;99.69
3968;BME280;9221;42.646;23.380;2023-06-14T01:28:19;94186.41;;;17.59;100.00
3968;BME280;9221;42.646;23.380;2023-06-14T01:30:47;94191.25;;;17.36;100.00
3968;BME280;9221;42.646;23.380;2023-06-14T01:33:15;94217.94;;;17.42;100.00
3968;BME280;9221;42.646;23.380;2023-06-14T01:35:43;94234.38;;;17.53;100.00
3968;BME280;9221;42.646;23.380;2023-06-14T01:38:09;94192.50;;;17.27;100.00
3968;BME280;9221;42.646;23.380;2023-06-14T01:40:34;94194.16;;;17.41;100.00
3968;BME280;9221;42.646;23.380;2023-06-14T01:43:01;94227.84;;;17.69;100.00
3968;BME280;9221;42.646;23.380;2023-06-14T01:45:28;94249.78;;;17.71;100.00
3968;BME280;9221;42.646;23.380;2023-06-14T01:47:54;94184.31;;;17.41;100.00
3968;BME280;9221;42.646;23.380;2023-06-14T01:50:21;94188.81;;;17.41;100.00
3968;BME280;9221;42.646;23.380;2023-06-14T01:52:46;94190.03;;;17.38;100.00
3968;BME280;9221;42.646;23.380;2023-06-14T01:55:11;94225.78;;;17.71;100.00
3968;BME280;9221;42.646;23.380;2023-06-14T01:57:37;94305.81;;;17.77;100.00
3968;BME280;9221;42.646;23.380;2023-06-14T02:00:04;94261.91;;;17.80;100.00
3968;BME280;9221;42.646;23.380;2023-06-14T02:02:33;94224.94;;;17.50;100.00
3968;BME280;9221;42.646;23.380;2023-06-14T02:04:58;94302.53;;;17.69;100.00
3968;BME280;9221;42.646;23.380;2023-06-14T02:07:24;94239.78;;;17.93;100.00
3968;BME280;9221;42.646;23.380;2023-06-14T02:09:49;94178.63;;;17.65;100.00
3968;BME280;9221;42.646;23.380;2023-06-14T02:12:15;94270.59;;;18.09;100.00
3968;BME280;9221;42.646;23.380;2023-06-14T02:14:40;94248.22;;;18.23;99.98
3968;BME280;9221;42.646;23.380;2023-06-14T02:17:05;94244.72;;;18.36;99.21
3968;BME280;9221;42.646;23.380;2023-06-14T02:19:31;94247.16;;;18.38;98.72
3968;BME280;9221;42.646;23.380;2023-06-14T02:21:57;94274.28;;;18.48;98.24
3968;BME280;9221;42.646;23.380;2023-06-14T02:24:22;94252.50;;;18.44;98.32
3968;BME280;9221;42.646;23.380;2023-06-14T02:26:48;94284.34;;;18.46;98.41
3968;BME280;9221;42.646;23.380;2023-06-14T02:29:14;94214.34;;;18.31;98.08
3968;BME280;9221;42.646;23.380;2023-06-14T02:31:41;94284.13;;;18.61;97.15
3968;BME280;9221;42.646;23.380;2023-06-14T02:34:07;94271.41;;;18.50;97.74
3968;BME280;9221;42.646;23.380;2023-06-14T02:36:35;94257.84;;;18.51;98.03
3968;BME280;9221;42.646;23.380;2023-06-14T02:39:07;94261.09;;;18.53;98.33
3968;BME280;9221;42.646;23.380;2023-06-14T02:41:34;94257.41;;;18.54;98.74
3968;BME280;9221;42.646;23.380;2023-06-14T02:44:00;94288.03;;;18.52;99.21
3968;BME280;9221;42.646;23.380;2023-06-14T02:46:25;94230.34;;;18.24;99.20
3968;BME280;9221;42.646;23.380;2023-06-14T02:48:50;94287.22;;;18.51;99.32
3968;BME280;9221;42.646;23.380;2023-06-14T02:51:16;94252.72;;;18.43;98.95
3968;BME280;9221;42.646;23.380;2023-06-14T02:53:41;94226.25;;;18.21;99.22
3968;BME280;9221;42.646;23.380;2023-06-14T02:56:06;94263.78;;;18.53;98.99
3968;BME280;9221;42.646;23.380;2023-06-14T02:58:32;94302.22;;;18.52;98.80
3968;BME280;9221;42.646;23.380;2023-06-14T03:00:58;94269.75;;;18.42;98.39
3968;BME280;9221;42.646;23.380;2023-06-14T03:03:29;94282.69;;;18.38;98.69
3968;BME280;9221;42.646;23.380;2023-06-14T03:05:54;94258.66;;;18.38;98.63
3968;BME280;9221;42.646;23.380;2023-06-14T03:08:20;94278.41;;;18.31;98.87
3968;BME280;9221;42.646;23.380;2023-06-14T03:10:46;94231.19;;;18.04;98.79
3968;BME280;9221;42.646;23.380;2023-06-14T03:13:12;94266.88;;;18.30;99.07
3968;BME280;9221;42.646;23.380;2023-06-14T03:15:38;94306.31;;;18.35;98.91
3968;BME280;9221;42.646;23.380;2023-06-14T03:18:04;94192.34;;;17.82;98.98
3968;BME280;9221;42.646;23.380;2023-06-14T03:20:30;94293.19;;;18.26;98.56
3968;BME280;9221;42.646;23.380;2023-06-14T03:22:59;94251.28;;;18.20;98.64
3968;BME280;9221;42.646;23.380;2023-06-14T03:25:25;94264.00;;;18.05;99.03
3968;BME280;9221;42.646;23.380;2023-06-14T03:27:51;94278.81;;;18.27;99.13
3968;BME280;9221;42.646;23.380;2023-06-14T03:30:16;94304.66;;;18.34;98.97
3968;BME280;9221;42.646;23.380;2023-06-14T03:32:42;94302.63;;;18.36;99.01
3968;BME280;9221;42.646;23.380;2023-06-14T03:35:07;94278.41;;;18.44;98.73
3968;BME280;9221;42.646;23.380;2023-06-14T03:37:34;94231.56;;;18.15;98.34
3968;BME280;9221;42.646;23.380;2023-06-14T03:39:59;94247.59;;;18.35;98.40
3968;BME280;9221;42.646;23.380;2023-06-14T03:42:25;94251.91;;;18.36;97.93
3968;BME280;9221;42.646;23.380;2023-06-14T03:44:51;94231.78;;;18.26;97.98
3968;BME280;9221;42.646;23.380;2023-06-14T03:47:16;94241.84;;;18.38;97.78
3968;BME280;9221;42.646;23.380;2023-06-14T03:49:42;94273.66;;;18.59;97.42
3968;BME280;9221;42.646;23.380;2023-06-14T03:52:07;94282.47;;;18.67;97.25
3968;BME280;9221;42.646;23.380;2023-06-14T03:54:33;94283.09;;;18.69;96.84
3968;BME280;9221;42.646;23.380;2023-06-14T03:56:59;94316.59;;;18.65;96.71
3968;BME280;9221;42.646;23.380;2023-06-14T03:59:24;94256.41;;;18.42;96.45
3968;BME280;9221;42.646;23.380;2023-06-14T04:01:51;94183.97;;;17.91;96.61
3968;BME280;9221;42.646;23.380;2023-06-14T04:04:16;94253.34;;;18.32;96.62
3968;BME280;9221;42.646;23.380;2023-06-14T04:06:42;94300.34;;;18.59;96.61
3968;BME280;9221;42.646;23.380;2023-06-14T04:09:08;94288.03;;;18.58;96.52
3968;BME280;9221;42.646;23.380;2023-06-14T04:11:34;94316.16;;;18.54;96.18
3968;BME280;9221;42.646;23.380;2023-06-14T04:13:59;94257.03;;;18.24;96.66
3968;BME280;9221;42.646;23.380;2023-06-14T04:16:25;94297.06;;;18.57;96.41
3968;BME280;9221;42.646;23.380;2023-06-14T04:18:51;94314.13;;;18.56;96.85
3968;BME280;9221;42.646;23.380;2023-06-14T04:21:18;94298.09;;;18.56;96.98
3968;BME280;9221;42.646;23.380;2023-06-14T04:23:43;94311.66;;;18.35;96.79
3968;BME280;9221;42.646;23.380;2023-06-14T04:26:09;94275.91;;;18.42;96.57
3968;BME280;9221;42.646;23.380;2023-06-14T04:28:35;94289.03;;;18.57;96.82
3968;BME280;9221;42.646;23.380;2023-06-14T04:31:08;94284.94;;;18.61;96.75
3968;BME280;9221;42.646;23.380;2023-06-14T04:33:36;94267.09;;;18.35;96.51
3968;BME280;9221;42.646;23.380;2023-06-14T04:36:09;94245.13;;;18.40;96.59
3968;BME280;9221;42.646;23.380;2023-06-14T04:38:34;94306.06;;;18.76;95.97
3968;BME280;9221;42.646;23.380;2023-06-14T04:41:00;94252.91;;;18.55;95.54
3968;BME280;9221;42.646;23.380;2023-06-14T04:43:27;94291.91;;;18.89;95.35
3968;BME280;9221;42.646;23.380;2023-06-14T04:45:52;94355.63;;;18.92;95.34
3968;BME280;9221;42.646;23.380;2023-06-14T04:48:20;94291.06;;;18.96;95.15
3968;BME280;9221;42.646;23.380;2023-06-14T04:50:46;94298.44;;;19.07;94.63
3968;BME280;9221;42.646;23.380;2023-06-14T04:53:11;94269.88;;;18.87;94.36
3968;BME280;9221;42.646;23.380;2023-06-14T04:55:36;94334.56;;;19.23;94.01
3968;BME280;9221;42.646;23.380;2023-06-14T04:58:02;94270.50;;;19.03;93.16
3968;BME280;9221;42.646;23.380;2023-06-14T05:00:28;94303.34;;;19.23;92.72
3968;BME280;9221;42.646;23.380;2023-06-14T05:02:55;94317.28;;;19.25;93.32
3968;BME280;9221;42.646;23.380;2023-06-14T05:05:22;94302.28;;;19.24;93.30
3968;BME280;9221;42.646;23.380;2023-06-14T05:07:48;94339.03;;;19.49;93.21
3968;BME280;9221;42.646;23.380;2023-06-14T05:10:13;94280.03;;;19.37;92.81
3968;BME280;9221;42.646;23.380;2023-06-14T05:12:38;94287.22;;;19.37;92.48
3968;BME280;9221;42.646;23.380;2023-06-14T05:15:04;94266.78;;;19.04;91.22
3968;BME280;9221;42.646;23.380;2023-06-14T05:17:30;94271.09;;;19.05;92.31
3968;BME280;9221;42.646;23.380;2023-06-14T05:19:55;94282.31;;;19.27;92.34
3968;BME280;9221;42.646;23.380;2023-06-14T05:22:21;94287.22;;;19.37;92.48
3968;BME280;9221;42.646;23.380;2023-06-14T05:24:46;94326.63;;;19.61;91.75
3968;BME280;9221;42.646;23.380;2023-06-14T05:27:13;94284.78;;;19.28;91.50
3968;BME280;9221;42.646;23.380;2023-06-14T05:29:39;94357.13;;;19.47;91.94
3968;BME280;9221;42.646;23.380;2023-06-14T05:32:05;94365.94;;;19.61;91.60
3968;BME280;9221;42.646;23.380;2023-06-14T05:34:31;94258.91;;;19.22;91.20
3968;BME280;9221;42.646;23.380;2023-06-14T05:36:56;94332.03;;;19.48;91.13
3968;BME280;9221;42.646;23.380;2023-06-14T05:39:22;94368.16;;;19.71;91.55
3968;BME280;9221;42.646;23.380;2023-06-14T05:41:49;94330.28;;;19.74;90.89
3968;BME280;9221;42.646;23.380;2023-06-14T05:44:14;94331.09;;;19.74;90.53
3968;BME280;9221;42.646;23.380;2023-06-14T05:46:40;94302.72;;;19.67;90.51
3968;BME280;9221;42.646;23.380;2023-06-14T05:49:06;94374.19;;;20.05;89.07
3968;BME280;9221;42.646;23.380;2023-06-14T05:51:31;94342.09;;;19.98;88.79
3968;BME280;9221;42.646;23.380;2023-06-14T05:53:57;94308.03;;;19.80;88.99
3968;BME280;9221;42.646;23.380;2023-06-14T05:56:22;94307.56;;;19.90;89.18
3968;BME280;9221;42.646;23.380;2023-06-14T05:58:47;94299.94;;;19.93;89.07
3968;BME280;9221;42.646;23.380;2023-06-14T06:01:14;94346.91;;;20.21;89.00
3968;BME280;9221;42.646;23.380;2023-06-14T06:03:39;94350.13;;;20.37;88.86
3968;BME280;9221;42.646;23.380;2023-06-14T06:06:05;94302.84;;;20.17;88.83
3968;BME280;9221;42.646;23.380;2023-06-14T06:08:30;94364.78;;;20.59;88.63
3968;BME280;9221;42.646;23.380;2023-06-14T06:10:56;94352.13;;;20.67;88.89
3968;BME280;9221;42.646;23.380;2023-06-14T06:13:22;94316.78;;;20.33;88.03
3968;BME280;9221;42.646;23.380;2023-06-14T06:15:47;94355.34;;;20.50;87.14
3968;BME280;9221;42.646;23.380;2023-06-14T06:18:13;94357.75;;;20.58;87.21
3968;BME280;9221;42.646;23.380;2023-06-14T06:20:38;94361.31;;;19.88;87.11
3968;BME280;9221;42.646;23.380;2023-06-14T06:23:04;94365.38;;;20.68;86.00
3968;BME280;9221;42.646;23.380;2023-06-14T06:25:29;94362.78;;;21.05;85.34
3968;BME280;9221;42.646;23.380;2023-06-14T06:27:57;94389.38;;;21.25;83.95
3968;BME280;9221;42.646;23.380;2023-06-14T06:30:24;94357.78;;;21.09;83.14
3968;BME280;9221;42.646;23.380;2023-06-14T06:32:50;94333.25;;;20.87;83.66
3968;BME280;9221;42.646;23.380;2023-06-14T06:35:16;94336.16;;;20.85;83.23
3968;BME280;9221;42.646;23.380;2023-06-14T06:37:42;94394.13;;;21.05;83.04
3968;BME280;9221;42.646;23.380;2023-06-14T06:40:08;94375.84;;;21.20;81.83
3968;BME280;9221;42.646;23.380;2023-06-14T06:42:34;94376.25;;;21.17;81.39
3968;BME280;9221;42.646;23.380;2023-06-14T06:45:00;94377.78;;;21.32;82.01
3968;BME280;9221;42.646;23.380;2023-06-14T06:47:26;94376.88;;;21.38;81.84
3968;BME280;9221;42.646;23.380;2023-06-14T06:49:51;94355.63;;;21.18;82.00
3968;BME280;9221;42.646;23.380;2023-06-14T06:52:17;94344.22;;;21.04;82.00
3968;BME280;9221;42.646;23.380;2023-06-14T06:54:42;94407.13;;;21.26;82.34
3968;BME280;9221;42.646;23.380;2023-06-14T06:57:07;94330.09;;;20.90;81.30
3968;BME280;9221;42.646;23.380;2023-06-14T06:59:33;94343.97;;;20.87;81.57
3968;BME280;9221;42.646;23.380;2023-06-14T07:01:59;94328.56;;;21.01;81.17
3968;BME280;9221;42.646;23.380;2023-06-14T07:04:25;94377.09;;;21.36;81.88
3968;BME280;9221;42.646;23.380;2023-06-14T07:06:50;94377.09;;;21.18;82.38
3968;BME280;9221;42.646;23.380;2023-06-14T07:09:16;94375.16;;;21.25;82.19
3968;BME280;9221;42.646;23.380;2023-06-14T07:11:43;94377.94;;;21.37;82.17
3968;BME280;9221;42.646;23.380;2023-06-14T07:14:09;94378.84;;;21.49;82.50
3968;BME280;9221;42.646;23.380;2023-06-14T07:16:36;94396.22;;;21.21;81.41
3968;BME280;9221;42.646;23.380;2023-06-14T07:19:03;94375.78;;;21.27;83.53
3968;BME280;9221;42.646;23.380;2023-06-14T07:21:28;94341.47;;;21.29;81.87
3968;BME280;9221;42.646;23.380;2023-06-14T07:23:54;94363.94;;;21.72;81.16
3968;BME280;9221;42.646;23.380;2023-06-14T07:26:20;94321.75;;;21.60;81.13
3968;BME280;9221;42.646;23.380;2023-06-14T07:28:46;94358.94;;;21.94;80.45
3968;BME280;9221;42.646;23.380;2023-06-14T07:31:13;94337.66;;;21.92;79.41
3968;BME280;9221;42.646;23.380;2023-06-14T07:33:39;94336.44;;;22.07;80.55
3968;BME280;9221;42.646;23.380;2023-06-14T07:36:05;94334.69;;;22.43;78.23
3968;BME280;9221;42.646;23.380;2023-06-14T07:38:30;94363.91;;;22.51;76.40
3968;BME280;9221;42.646;23.380;2023-06-14T07:40:56;94369.09;;;22.64;75.69
3968;BME280;9221;42.646;23.380;2023-06-14T07:43:21;94327.69;;;22.42;75.23
3968;BME280;9221;42.646;23.380;2023-06-14T07:45:46;94326.09;;;22.64;75.89
3968;BME280;9221;42.646;23.380;2023-06-14T07:48:12;94350.88;;;22.90;74.99
3968;BME280;9221;42.646;23.380;2023-06-14T07:50:37;94330.38;;;22.54;75.41
3968;BME280;9221;42.646;23.380;2023-06-14T07:53:03;94368.63;;;22.68;76.12
3968;BME280;9221;42.646;23.380;2023-06-14T07:55:28;94402.75;;;22.67;74.55
3968;BME280;9221;42.646;23.380;2023-06-14T07:57:54;94408.09;;;22.55;76.00
3968;BME280;9221;42.646;23.380;2023-06-14T08:00:20;94379.38;;;22.68;75.85
3968;BME280;9221;42.646;23.380;2023-06-14T08:02:46;94335.63;;;22.37;75.25
3968;BME280;9221;42.646;23.380;2023-06-14T08:05:12;94379.63;;;22.78;74.86
3968;BME280;9221;42.646;23.380;2023-06-14T08:07:39;94404.16;;;22.70;75.87
3968;BME280;9221;42.646;23.380;2023-06-14T08:10:05;94318.28;;;22.33;74.77
3968;BME280;9221;42.646;23.380;2023-06-14T08:12:31;94411.91;;;22.78;74.33
3968;BME280;9221;42.646;23.380;2023-06-14T08:14:56;94324.28;;;22.35;74.49
3968;BME280;9221;42.646;23.380;2023-06-14T08:17:22;94385.28;;;23.12;74.26
3968;BME280;9221;42.646;23.380;2023-06-14T08:19:47;94345.97;;;23.11;73.48
3968;BME280;9221;42.646;23.380;2023-06-14T08:22:13;94417.13;;;23.62;73.24
3968;BME280;9221;42.646;23.380;2023-06-14T08:24:38;94398.94;;;23.93;72.76
3968;BME280;9221;42.646;23.380;2023-06-14T08:27:05;94381.16;;;23.92;71.86
3968;BME280;9221;42.646;23.380;2023-06-14T08:29:31;94423.63;;;24.43;69.92
3968;BME280;9221;42.646;23.380;2023-06-14T08:31:56;94383.97;;;24.26;67.79
3968;BME280;9221;42.646;23.380;2023-06-14T08:34:22;94395.22;;;24.23;69.04
3968;BME280;9221;42.646;23.380;2023-06-14T08:36:50;94410.84;;;24.67;68.34
3968;BME280;9221;42.646;23.380;2023-06-14T08:39:15;94399.94;;;25.08;66.27
3968;BME280;9221;42.646;23.380;2023-06-14T08:41:42;94411.88;;;25.12;66.77
3968;BME280;9221;42.646;23.380;2023-06-14T08:44:11;94372.94;;;25.08;64.97
3968;BME280;9221;42.646;23.380;2023-06-14T08:46:37;94385.53;;;25.19;66.01
3968;BME280;9221;42.646;23.380;2023-06-14T08:49:03;94398.69;;;25.89;64.68
3968;BME280;9221;42.646;23.380;2023-06-14T08:51:31;94406.59;;;25.95;63.77
3968;BME280;9221;42.646;23.380;2023-06-14T08:54:02;94393.50;;;25.65;64.39
3968;BME280;9221;42.646;23.380;2023-06-14T08:56:30;94349.41;;;25.37;63.49
3968;BME280;9221;42.646;23.380;2023-06-14T08:58:56;94410.59;;;26.10;63.82
3968;BME280;9221;42.646;23.380;2023-06-14T09:01:23;94422.88;;;26.00;60.64
3968;BME280;9221;42.646;23.380;2023-06-14T09:03:49;94379.50;;;25.12;63.05
3968;BME280;9221;42.646;23.380;2023-06-14T09:06:16;94389.56;;;25.33;64.03
3968;BME280;9221;42.646;23.380;2023-06-14T09:08:45;94429.53;;;26.10;60.91
3968;BME280;9221;42.646;23.380;2023-06-14T09:11:13;94402.56;;;26.69;58.95
3968;BME280;9221;42.646;23.380;2023-06-14T09:13:40;94383.75;;;27.12;57.82
3968;BME280;9221;42.646;23.380;2023-06-14T09:16:06;94408.97;;;27.18;57.82
3968;BME280;9221;42.646;23.380;2023-06-14T09:18:42;94413.03;;;26.11;59.48
3968;BME280;9221;42.646;23.380;2023-06-14T09:21:14;94381.22;;;25.74;59.72
3968;BME280;9221;42.646;23.380;2023-06-14T09:23:47;94392.94;;;26.02;59.17
3968;BME280;9221;42.646;23.380;2023-06-14T09:26:19;94375.84;;;26.46;60.43
3968;BME280;9221;42.646;23.380;2023-06-14T09:28:46;94416.84;;;26.38;58.36
3968;BME280;9221;42.646;23.380;2023-06-14T09:31:13;94376.84;;;26.12;59.23
3968;BME280;9221;42.646;23.380;2023-06-14T09:33:41;94400.91;;;26.14;60.36
3968;BME280;9221;42.646;23.380;2023-06-14T09:36:12;94366.22;;;26.06;60.34
3968;BME280;9221;42.646;23.380;2023-06-14T09:38:40;94377.19;;;26.71;60.08
3968;BME280;9221;42.646;23.380;2023-06-14T09:41:06;94337.47;;;27.14;57.68
3968;BME280;9221;42.646;23.380;2023-06-14T09:43:33;94337.19;;;27.48;55.92
3968;BME280;9221;42.646;23.380;2023-06-14T09:46:00;94332.16;;;27.72;54.34
3968;BME280;9221;42.646;23.380;2023-06-14T09:48:26;94390.38;;;27.64;54.71
3968;BME280;9221;42.646;23.380;2023-06-14T09:50:51;94333.22;;;27.28;54.74
3968;BME280;9221;42.646;23.380;2023-06-14T09:53:21;94380.34;;;27.27;55.74
3968;BME280;9221;42.646;23.380;2023-06-14T09:55:49;94330.59;;;26.96;56.31
3968;BME280;9221;42.646;23.380;2023-06-14T09:58:16;94301.81;;;26.57;56.57
3968;BME280;9221;42.646;23.380;2023-06-14T10:00:42;94345.34;;;26.78;56.90
3968;BME280;9221;42.646;23.380;2023-06-14T10:03:15;94355.53;;;26.43;58.37
3968;BME280;9221;42.646;23.380;2023-06-14T10:05:47;94352.34;;;26.51;58.84
3968;BME280;9221;42.646;23.380;2023-06-14T10:08:16;94343.44;;;26.78;58.36
3968;BME280;9221;42.646;23.380;2023-06-14T10:10:43;94324.34;;;26.95;57.45
3968;BME280;9221;42.646;23.380;2023-06-14T10:13:09;94339.41;;;27.66;55.79
3968;BME280;9221;42.646;23.380;2023-06-14T10:15:55;94286.13;;;27.29;54.75
3968;BME280;9221;42.646;23.380;2023-06-14T10:18:38;94334.06;;;27.29;56.08
3968;BME280;9221;42.646;23.380;2023-06-14T10:23:42;94331.72;;;25.68;60.90
3968;BME280;9221;42.646;23.380;2023-06-14T10:26:18;94325.19;;;25.87;60.67
3968;BME280;9221;42.646;23.380;2023-06-14T10:28:56;94339.69;;;26.57;59.92
3968;BME280;9221;42.646;23.380;2023-06-14T10:31:22;94349.81;;;26.67;56.23
3968;BME280;9221;42.646;23.380;2023-06-14T10:34:05;94368.63;;;26.29;58.04
3968;BME280;9221;42.646;23.380;2023-06-14T10:36:31;94292.47;;;26.38;56.66
3968;BME280;9221;42.646;23.380;2023-06-14T10:39:20;94331.50;;;27.12;58.27
3968;BME280;9221;42.646;23.380;2023-06-14T10:41:56;94355.81;;;27.97;55.37
3968;BME280;9221;42.646;23.380;2023-06-14T10:46:54;94331.84;;;27.68;54.79
3968;BME280;9221;42.646;23.380;2023-06-14T10:49:20;94317.53;;;27.30;56.22
3968;BME280;9221;42.646;23.380;2023-06-14T10:52:02;94327.31;;;27.90;53.81
3968;BME280;9221;42.646;23.380;2023-06-14T10:54:28;94355.97;;;27.70;53.01
3968;BME280;9221;42.646;23.380;2023-06-14T10:56:53;94289.38;;;27.84;53.25
3968;BME280;9221;42.646;23.380;2023-06-14T10:59:20;94303.88;;;28.26;52.85
3968;BME280;9221;42.646;23.380;2023-06-14T11:04:39;94332.78;;;27.42;53.57
3968;BME280;9221;42.646;23.380;2023-06-14T11:12:47;94262.38;;;27.42;53.26
3968;BME280;9221;42.646;23.380;2023-06-14T11:15:13;94262.78;;;26.75;55.56
3968;BME280;9221;42.646;23.380;2023-06-14T11:17:39;94261.66;;;26.39;56.33
3968;BME280;9221;42.646;23.380;2023-06-14T11:20:11;94293.16;;;26.55;55.29
3968;BME280;9221;42.646;23.380;2023-06-14T11:22:41;94291.34;;;26.33;54.14
3968;BME280;9221;42.646;23.380;2023-06-14T11:25:14;94271.91;;;26.04;55.26
3968;BME280;9221;42.646;23.380;2023-06-14T11:27:42;94271.88;;;26.31;56.39
3968;BME280;9221;42.646;23.380;2023-06-14T11:30:08;94280.06;;;27.12;55.87
3968;BME280;9221;42.646;23.380;2023-06-14T11:32:35;94282.59;;;27.82;55.78
3968;BME280;9221;42.646;23.380;2023-06-14T11:35:01;94258.28;;;28.13;53.12
3968;BME280;9221;42.646;23.380;2023-06-14T11:37:29;94284.78;;;27.90;53.09
3968;BME280;9221;42.646;23.380;2023-06-14T11:39:56;94251.00;;;28.13;52.48
3968;BME280;9221;42.646;23.380;2023-06-14T11:42:22;94280.03;;;29.16;50.21
3968;BME280;9221;42.646;23.380;2023-06-14T11:44:49;94283.84;;;28.89;49.94
3968;BME280;9221;42.646;23.380;2023-06-14T11:47:15;94277.91;;;28.82;51.41
3968;BME280;9221;42.646;23.380;2023-06-14T11:49:40;94294.72;;;28.89;51.16
3968;BME280;9221;42.646;23.380;2023-06-14T11:52:07;94272.22;;;28.68;51.10
3968;BME280;9221;42.646;23.380;2023-06-14T11:54:33;94267.44;;;27.96;51.51
3968;BME280;9221;42.646;23.380;2023-06-14T11:56:59;94242.56;;;26.88;54.35
3968;BME280;9221;42.646;23.380;2023-06-14T11:59:25;94256.94;;;27.36;55.10
3968;BME280;9221;42.646;23.380;2023-06-14T12:01:52;94231.47;;;28.22;53.53
3968;BME280;9221;42.646;23.380;2023-06-14T12:04:29;94236.06;;;28.62;51.15
3968;BME280;9221;42.646;23.380;2023-06-14T12:06:55;94210.59;;;28.74;50.47
3968;BME280;9221;42.646;23.380;2023-06-14T12:09:23;94235.28;;;28.82;50.59
3968;BME280;9221;42.646;23.380;2023-06-14T12:11:59;94227.81;;;27.64;52.48
3968;BME280;9221;42.646;23.380;2023-06-14T12:14:30;94257.53;;;26.96;53.68
3968;BME280;9221;42.646;23.380;2023-06-14T12:17:04;94238.34;;;27.61;52.78
3968;BME280;9221;42.646;23.380;2023-06-14T12:19:40;94236.03;;;28.00;51.91
3968;BME280;9221;42.646;23.380;2023-06-14T12:22:07;94204.34;;;28.11;51.04
3968;BME280;9221;42.646;23.380;2023-06-14T12:24:34;94197.50;;;27.93;52.43
3968;BME280;9221;42.646;23.380;2023-06-14T12:26:59;94230.69;;;27.37;54.08
3968;BME280;9221;42.646;23.380;2023-06-14T12:29:25;94218.56;;;26.59;55.56
3968;BME280;9221;42.646;23.380;2023-06-14T12:31:51;94183.25;;;25.79;57.23
3968;BME280;9221;42.646;23.380;2023-06-14T12:34:18;94218.94;;;25.81;57.63
3968;BME280;9221;42.646;23.380;2023-06-14T12:36:44;94224.94;;;25.88;57.81
3968;BME280;9221;42.646;23.380;2023-06-14T12:39:11;94205.47;;;25.86;58.84
3968;BME280;9221;42.646;23.380;2023-06-14T12:41:36;94209.66;;;25.72;58.80
3968;BME280;9221;42.646;23.380;2023-06-14T12:44:02;94227.13;;;25.91;57.92
3968;BME280;9221;42.646;23.380;2023-06-14T12:46:30;94212.97;;;25.79;58.67
3968;BME280;9221;42.646;23.380;2023-06-14T12:48:56;94196.47;;;25.48;58.18
3968;BME280;9221;42.646;23.380;2023-06-14T12:51:22;94139.84;;;25.58;57.94
3968;BME280;9221;42.646;23.380;2023-06-14T12:53:48;94207.44;;;26.18;56.39
3968;BME280;9221;42.646;23.380;2023-06-14T12:56:14;94197.28;;;26.35;56.61
3968;BME280;9221;42.646;23.380;2023-06-14T12:58:41;94160.31;;;26.09;56.19
3968;BME280;9221;42.646;23.380;2023-06-14T13:01:06;94222.25;;;25.39;59.75
3968;BME280;9221;42.646;23.380;2023-06-14T13:03:32;94179.47;;;24.47;65.03
3968;BME280;9221;42.646;23.380;2023-06-14T13:05:58;94207.84;;;23.87;68.90
3968;BME280;9221;42.646;23.380;2023-06-14T13:08:24;94191.06;;;23.39;72.44
3968;BME280;9221;42.646;23.380;2023-06-14T13:10:49;94228.78;;;23.27;74.10
3968;BME280;9221;42.646;23.380;2023-06-14T13:13:15;94191.97;;;23.04;76.66
3968;BME280;9221;42.646;23.380;2023-06-14T13:15:40;94177.66;;;22.62;79.76
3968;BME280;9221;42.646;23.380;2023-06-14T13:18:06;94258.75;;;22.59;81.59
3968;BME280;9221;42.646;23.380;2023-06-14T13:20:31;94229.84;;;22.19;85.95
3968;BME280;9221;42.646;23.380;2023-06-14T13:22:57;94240.34;;;21.67;89.08